Time;durP1;ratioP1;P1;durP2;ratioP2;P2;SDS_P1;SDS_P2;PMS_P1;PMS_P2;Temp;Humidity;BMP_temperature;BMP_pressure;BME280_temperature;BME280_humidity;BME280_pressure;Samples;Min_cycle;Max_cycle;Signal;HPM_P1;HPM_P2
2022/08/15 00:02:43;;;;;;;3.60;3.17;;;21.40;86.60;;;;;;5007652;28;20078;-70
2022/08/15 00:05:22;;;;;;;7.40;3.72;;;21.40;86.50;;;;;;5005958;28;20526;-70
2022/08/15 00:07:50;;;;;;;4.22;3.45;;;21.40;86.70;;;;;;4996277;28;20064;-70
2022/08/15 00:10:21;;;;;;;8.27;4.65;;;21.40;86.80;;;;;;4996257;28;20041;-71
2022/08/15 00:12:48;;;;;;;5.68;3.80;;;21.40;87.20;;;;;;5009505;28;20540;-71
2022/08/15 00:15:18;;;;;;;4.85;3.35;;;21.40;87.00;;;;;;5006761;28;20046;-70
2022/08/15 00:17:50;;;;;;;5.20;3.83;;;21.40;87.20;;;;;;4988325;28;20037;-71
2022/08/15 00:20:22;;;;;;;4.47;3.63;;;21.30;87.40;;;;;;5000765;28;20041;-71
2022/08/15 00:22:54;;;;;;;6.47;3.80;;;21.30;87.70;;;;;;5008915;28;20423;-72
2022/08/15 00:25:20;;;;;;;6.97;3.80;;;21.30;87.50;;;;;;5005323;28;20136;-71
2022/08/15 00:27:52;;;;;;;6.90;4.15;;;21.40;87.50;;;;;;5008147;28;20069;-71
2022/08/15 00:30:24;;;;;;;7.65;4.13;;;21.40;87.60;;;;;;5018085;28;20038;-72
2022/08/15 00:32:57;;;;;;;8.80;3.67;;;21.40;88.40;;;;;;4994504;28;20038;-71
2022/08/15 00:35:36;;;;;;;6.88;3.45;;;21.30;88.90;;;;;;4994124;28;20511;-73
2022/08/15 00:38:16;;;;;;;6.65;3.88;;;21.30;89.50;;;;;;5008013;28;20524;-73
2022/08/15 00:43:50;;;;;;;4.43;3.55;;;21.10;90.10;;;;;;5040088;23;20049;-90
2022/08/15 00:46:17;;;;;;;5.63;4.10;;;21.10;90.10;;;;;;5029585;28;20133;-88
2022/08/15 00:48:46;;;;;;;4.63;3.65;;;21.10;90.30;;;;;;5036378;28;20029;-88
2022/08/15 00:51:35;;;;;;;5.32;3.45;;;21.10;90.40;;;;;;5021112;28;20045;-88
2022/08/15 00:54:23;;;;;;;7.50;3.65;;;21.10;90.50;;;;;;5016152;28;20045;-88
2022/08/15 00:57:00;;;;;;;6.57;3.85;;;21.10;90.90;;;;;;5028185;23;20079;-71
2022/08/15 00:59:36;;;;;;;8.38;3.50;;;21.10;91.40;;;;;;4997777;28;20403;-73
2022/08/15 01:02:11;;;;;;;5.40;3.90;;;21.00;91.30;;;;;;4994435;28;20049;-73
2022/08/15 01:04:44;;;;;;;4.40;4.00;;;21.00;91.40;;;;;;5016279;28;20046;-73
2022/08/15 01:07:18;;;;;;;6.47;4.00;;;21.00;91.60;;;;;;5010609;28;20411;-73
2022/08/15 01:09:52;;;;;;;8.20;3.88;;;21.00;91.60;;;;;;5020106;28;20419;-73
2022/08/15 01:12:26;;;;;;;5.20;3.67;;;21.00;91.60;;;;;;4993578;28;20042;-73
2022/08/15 01:15:03;;;;;;;6.55;4.13;;;20.90;91.70;;;;;;4990436;28;20049;-73
2022/08/15 01:17:36;;;;;;;4.88;3.80;;;20.90;91.90;;;;;;4992222;28;20514;-73
2022/08/15 01:20:14;;;;;;;6.00;5.32;;;20.90;92.00;;;;;;5013259;28;20052;-72
2022/08/15 01:23:14;;;;;;;4.18;3.78;;;20.90;92.10;;;;;;5010314;28;20527;-73
2022/08/15 01:26:04;;;;;;;6.53;4.18;;;20.90;92.10;;;;;;5006568;28;20073;-73
2022/08/15 01:28:40;;;;;;;7.50;4.80;;;20.90;92.30;;;;;;5009420;28;20496;-73
2022/08/15 01:31:18;;;;;;;4.57;3.95;;;20.90;92.50;;;;;;5008197;28;20096;-73
2022/08/15 01:33:59;;;;;;;7.10;4.22;;;20.90;92.40;;;;;;5007288;28;20038;-72
2022/08/15 01:36:32;;;;;;;5.50;4.28;;;20.90;92.40;;;;;;5011043;28;20600;-73
2022/08/15 01:39:14;;;;;;;;;;;20.80;92.70;;;;;;4976091;28;20056;-73
2022/08/15 01:42:01;;;;;;;5.55;4.13;;;20.80;92.50;;;;;;5010772;28;19921;-73
2022/08/15 01:44:40;;;;;;;5.90;4.55;;;20.80;92.50;;;;;;4979543;28;20093;-73
2022/08/15 01:47:31;;;;;;;5.65;4.32;;;20.80;92.50;;;;;;5003343;28;20041;-73
2022/08/15 01:50:09;;;;;;;5.20;3.97;;;20.80;92.70;;;;;;5009634;28;20041;-73
2022/08/15 01:52:59;;;;;;;5.43;3.97;;;20.80;92.70;;;;;;4966515;28;20041;-73
2022/08/15 01:55:46;;;;;;;9.07;4.40;;;20.80;92.70;;;;;;4976481;28;20135;-72
2022/08/15 01:58:18;;;;;;;5.50;4.15;;;20.80;92.80;;;;;;4991531;28;20132;-73
2022/08/15 02:01:06;;;;;;;6.30;4.20;;;20.80;92.80;;;;;;4990300;28;20038;-73
2022/08/15 02:03:41;;;;;;;6.88;4.28;;;20.80;92.90;;;;;;5013265;28;20536;-73
2022/08/15 02:06:13;;;;;;;5.85;4.25;;;20.80;92.90;;;;;;5001951;28;20544;-73
2022/08/15 02:08:47;;;;;;;6.90;4.07;;;20.70;93.00;;;;;;5015800;28;20042;-73
2022/08/15 02:11:21;;;;;;;7.07;4.10;;;20.80;93.10;;;;;;4996470;28;20057;-73
2022/08/15 02:13:54;;;;;;;5.57;3.58;;;20.70;93.10;;;;;;5009570;28;20381;-73
2022/08/15 02:16:30;;;;;;;;;;;20.70;93.10;;;;;;4991978;28;20041;-73
2022/08/15 02:18:59;;;;;;;4.88;4.03;;;20.70;93.20;;;;;;5009915;28;20335;-73
2022/08/15 02:21:31;;;;;;;7.40;4.45;;;20.70;93.20;;;;;;5011487;28;20126;-73
2022/08/15 02:24:07;;;;;;;7.03;4.17;;;20.70;93.30;;;;;;5009973;28;20185;-72
2022/08/15 02:26:39;;;;;;;7.05;4.10;;;20.60;93.20;;;;;;5007418;28;20038;-73
2022/08/15 02:29:11;;;;;;;7.13;3.97;;;20.70;93.30;;;;;;4978627;28;20124;-73
2022/08/15 02:31:44;;;;;;;7.15;3.70;;;20.60;93.30;;;;;;4982198;28;20420;-73
2022/08/15 02:34:16;;;;;;;6.60;4.10;;;20.60;93.30;;;;;;4997726;28;20157;-73
2022/08/15 02:36:48;;;;;;;4.85;3.63;;;20.70;93.30;;;;;;5005786;28;20049;-73
2022/08/15 02:39:16;;;;;;;5.68;3.60;;;20.60;93.30;;;;;;4982766;28;20457;-72
2022/08/15 02:41:50;;;;;;;4.45;3.88;;;20.60;93.30;;;;;;4996495;28;20044;-73
2022/08/15 02:44:22;;;;;;;7.68;4.00;;;20.60;93.40;;;;;;5007545;28;20443;-73
2022/08/15 02:47:00;;;;;;;6.68;4.00;;;20.60;93.40;;;;;;4975634;28;20420;-73
2022/08/15 02:49:33;;;;;;;;;;;20.60;93.50;;;;;;5010217;28;20046;-74
2022/08/15 02:52:06;;;;;;;5.13;3.65;;;20.60;93.60;;;;;;4988009;28;19976;-72
2022/08/15 02:54:39;;;;;;;;;;;20.60;93.80;;;;;;4992835;28;20507;-73
2022/08/15 02:57:12;;;;;;;4.40;3.25;;;20.50;93.80;;;;;;5011266;28;19964;-73
2022/08/15 02:59:46;;;;;;;5.40;4.00;;;20.50;94.00;;;;;;5008080;28;20073;-73
2022/08/15 03:02:26;;;;;;;5.22;4.30;;;20.40;94.10;;;;;;5010281;28;20057;-72
2022/08/15 03:05:02;;;;;;;4.18;3.42;;;20.30;94.30;;;;;;5007122;28;20408;-73
2022/08/15 03:07:36;;;;;;;7.03;4.35;;;20.30;94.40;;;;;;5009404;28;20044;-73
2022/08/15 03:10:08;;;;;;;4.97;3.70;;;20.30;94.50;;;;;;4992802;28;20053;-73
2022/08/15 03:12:50;;;;;;;5.05;3.80;;;20.30;94.60;;;;;;4991628;28;20056;-73
2022/08/15 03:15:24;;;;;;;6.40;3.63;;;20.20;94.60;;;;;;4990506;28;20555;-73
2022/08/15 03:17:56;;;;;;;4.63;3.55;;;20.20;94.70;;;;;;5001279;28;20096;-73
2022/08/15 03:20:28;;;;;;;5.78;3.40;;;20.20;94.80;;;;;;5009342;28;20034;-73
2022/08/15 03:23:01;;;;;;;7.75;4.07;;;20.20;95.00;;;;;;4976575;28;20042;-73
2022/08/15 03:25:44;;;;;;;4.93;3.63;;;20.10;95.10;;;;;;5005443;28;20044;-73
2022/08/15 03:28:20;;;;;;;7.15;3.60;;;20.10;95.30;;;;;;5010886;28;20407;-73
2022/08/15 03:30:53;;;;;;;5.25;3.40;;;20.00;95.50;;;;;;5002718;28;20069;-73
2022/08/15 03:33:25;;;;;;;5.75;3.92;;;20.00;95.70;;;;;;5002573;28;20045;-73
2022/08/15 03:35:58;;;;;;;7.25;3.80;;;20.00;95.90;;;;;;4977078;28;20034;-73
2022/08/15 03:38:30;;;;;;;5.22;3.78;;;19.90;96.10;;;;;;4995611;28;20088;-73
2022/08/15 03:41:08;;;;;;;5.95;3.90;;;19.90;96.30;;;;;;4998008;28;20129;-73
2022/08/15 03:43:43;;;;;;;6.40;3.90;;;19.90;96.60;;;;;;4976113;28;20473;-73
2022/08/15 03:46:20;;;;;;;8.55;3.45;;;19.90;96.90;;;;;;5013133;28;20069;-73
2022/08/15 03:48:54;;;;;;;6.78;3.65;;;19.90;97.10;;;;;;4993259;28;20037;-73
2022/08/15 03:51:31;;;;;;;5.22;3.20;;;19.90;97.40;;;;;;5002365;28;20411;-73
2022/08/15 03:54:12;;;;;;;4.35;3.35;;;19.90;97.50;;;;;;5004522;28;20044;-73
2022/08/15 03:56:43;;;;;;;6.60;4.10;;;19.90;97.70;;;;;;5012402;28;20038;-73
2022/08/15 03:59:16;;;;;;;5.00;3.30;;;19.90;97.90;;;;;;4994283;28;20050;-73
2022/08/15 04:01:49;;;;;;;6.28;3.42;;;19.90;98.10;;;;;;4992811;28;20046;-73
2022/08/15 04:04:22;;;;;;;4.30;3.03;;;19.90;98.20;;;;;;5006300;28;20045;-73
2022/08/15 04:06:54;;;;;;;4.18;3.67;;;19.90;98.40;;;;;;4985236;28;20037;-73
2022/08/15 04:09:26;;;;;;;4.18;3.30;;;19.90;98.70;;;;;;5009511;28;20049;-73
2022/08/15 04:11:58;;;;;;;6.55;3.13;;;19.90;98.90;;;;;;5010141;28;20034;-73
2022/08/15 04:14:37;;;;;;;5.82;3.15;;;19.80;99.10;;;;;;5005129;28;20108;-73
2022/08/15 04:17:13;;;;;;;3.42;3.13;;;19.80;99.40;;;;;;4992931;28;20042;-73
2022/08/15 04:19:48;;;;;;;6.30;3.03;;;19.80;99.70;;;;;;5009538;28;20069;-73
2022/08/15 04:22:35;;;;;;;3.83;3.25;;;19.80;99.90;;;;;;4996425;28;20156;-72
2022/08/15 04:25:13;;;;;;;4.20;3.45;;;19.80;99.90;;;;;;4995846;28;20049;-73
2022/08/15 04:27:51;;;;;;;3.35;3.05;;;19.80;99.90;;;;;;4996534;28;20045;-73
2022/08/15 04:30:27;;;;;;;3.83;3.00;;;19.80;99.90;;;;;;5010901;28;20081;-73
2022/08/15 04:33:15;;;;;;;4.18;2.70;;;19.80;99.90;;;;;;5009095;28;20058;-73
2022/08/15 04:35:53;;;;;;;5.93;3.08;;;19.80;99.90;;;;;;5008874;28;20089;-73
2022/08/15 04:38:25;;;;;;;2.85;2.60;;;19.80;99.90;;;;;;4993249;28;20046;-73
2022/08/15 04:40:58;;;;;;;4.18;2.58;;;19.80;99.90;;;;;;4993408;28;20070;-73
2022/08/15 04:43:31;;;;;;;3.67;2.78;;;19.80;99.90;;;;;;4979169;28;20156;-73
2022/08/15 04:46:06;;;;;;;3.90;2.90;;;19.80;99.90;;;;;;5016175;28;20517;-73
2022/08/15 04:48:43;;;;;;;5.97;2.97;;;19.90;99.90;;;;;;4991855;28;20791;-73
2022/08/15 04:51:14;;;;;;;3.85;3.00;;;19.90;99.90;;;;;;4978609;28;20190;-73
2022/08/15 04:53:46;;;;;;;3.58;2.63;;;19.90;99.90;;;;;;5010274;28;20160;-73
2022/08/15 04:56:18;;;;;;;4.25;2.45;;;19.90;99.90;;;;;;4995466;28;20133;-73
2022/08/15 04:58:50;;;;;;;4.43;2.40;;;19.90;99.90;;;;;;4996153;28;20048;-73
2022/08/15 05:01:19;;;;;;;5.05;2.92;;;19.90;99.90;;;;;;4991005;28;20176;-73
2022/08/15 05:03:53;;;;;;;3.88;2.85;;;19.90;99.90;;;;;;4991791;28;20049;-73
2022/08/15 05:06:26;;;;;;;4.88;2.58;;;19.90;99.90;;;;;;5008281;28;20065;-71
2022/08/15 05:09:03;;;;;;;4.93;2.50;;;19.80;99.90;;;;;;4996464;28;20049;-71
2022/08/15 05:11:35;;;;;;;4.63;2.40;;;19.80;99.90;;;;;;4997117;28;20108;-71
2022/08/15 05:14:07;;;;;;;4.47;2.50;;;19.80;99.90;;;;;;4993532;28;20389;-73
2022/08/15 05:16:39;;;;;;;3.83;2.45;;;19.80;99.90;;;;;;4975453;28;20046;-73
2022/08/15 05:19:10;;;;;;;4.43;2.60;;;19.80;99.90;;;;;;5001950;28;20062;-73
2022/08/15 05:21:43;;;;;;;4.07;2.63;;;19.70;99.90;;;;;;4980350;28;20042;-73
2022/08/15 05:24:15;;;;;;;3.35;2.92;;;19.70;99.90;;;;;;4993058;28;20128;-73
2022/08/15 05:26:46;;;;;;;4.93;2.72;;;19.70;99.90;;;;;;5012988;28;20050;-73
2022/08/15 05:29:18;;;;;;;2.67;2.38;;;19.60;99.90;;;;;;4992121;28;20046;-73
2022/08/15 05:31:50;;;;;;;3.35;2.63;;;19.60;99.90;;;;;;5004508;28;20092;-73
2022/08/15 05:34:23;;;;;;;5.13;2.47;;;19.60;99.90;;;;;;4969645;28;20554;-73
2022/08/15 05:36:55;;;;;;;3.15;2.30;;;19.50;99.90;;;;;;4993869;28;20116;-73
2022/08/15 05:39:29;;;;;;;5.22;3.00;;;19.50;99.90;;;;;;4997708;28;20034;-73
2022/08/15 05:42:18;;;;;;;3.10;2.42;;;19.50;99.90;;;;;;4977044;28;20193;-73
2022/08/15 05:45:04;;;;;;;3.22;2.58;;;19.40;99.90;;;;;;4997539;28;20048;-73
2022/08/15 05:47:54;;;;;;;4.63;2.22;;;19.40;99.90;;;;;;4995258;28;20044;-73
2022/08/15 05:50:39;;;;;;;3.25;2.40;;;19.40;99.90;;;;;;5008515;28;20042;-73
2022/08/15 05:53:31;;;;;;;2.65;2.17;;;19.40;99.90;;;;;;4986519;28;20042;-72
2022/08/15 05:56:15;;;;;;;3.47;2.35;;;19.40;99.90;;;;;;4990982;28;20054;-72
2022/08/15 05:59:04;;;;;;;5.22;2.88;;;19.30;99.90;;;;;;4994302;28;20050;-73
2022/08/15 06:01:44;;;;;;;3.88;2.65;;;19.30;99.90;;;;;;5009105;28;20042;-73
2022/08/15 06:04:21;;;;;;;3.08;2.45;;;19.30;99.90;;;;;;4993658;28;20125;-72
2022/08/15 06:06:55;;;;;;;3.22;2.55;;;19.30;99.90;;;;;;4989623;28;20083;-73
2022/08/15 06:09:35;;;;;;;3.25;2.80;;;19.30;99.90;;;;;;5014506;28;20073;-73
2022/08/15 06:12:16;;;;;;;3.80;2.58;;;19.20;99.90;;;;;;4994602;28;20050;-73
2022/08/15 06:14:52;;;;;;;3.20;2.42;;;19.10;99.90;;;;;;4988839;28;20050;-73
2022/08/15 06:17:32;;;;;;;5.30;3.08;;;19.10;99.90;;;;;;4993216;28;20544;-73
2022/08/15 06:20:07;;;;;;;5.80;2.95;;;19.10;99.90;;;;;;4992971;28;20056;-73
2022/08/15 06:23:05;;;;;;;4.55;3.05;;;19.10;99.90;;;;;;4988363;28;20054;-73
2022/08/15 06:26:29;;;;;;;5.15;3.00;;;19.10;99.90;;;;;;4981347;28;20045;-73
2022/08/15 06:29:25;;;;;;;3.90;3.50;;;19.00;99.90;;;;;;4981725;28;20465;-73
2022/08/15 06:32:03;;;;;;;3.67;2.63;;;19.00;99.90;;;;;;4978738;28;20039;-73
2022/08/15 06:34:43;;;;;;;4.68;3.05;;;19.00;99.90;;;;;;4978311;28;20534;-73
2022/08/15 06:37:42;;;;;;;3.85;2.83;;;19.00;99.90;;;;;;4993492;28;20045;-73
2022/08/15 06:40:49;;;;;;;4.63;3.63;;;18.90;99.90;;;;;;4974800;28;20097;-73
2022/08/15 06:43:21;;;;;;;4.43;3.33;;;18.90;99.90;;;;;;4988853;28;20050;-73
2022/08/15 06:46:13;;;;;;;4.05;3.10;;;19.00;99.90;;;;;;4992131;28;20108;-73
2022/08/15 06:48:46;;;;;;;3.83;3.05;;;19.00;99.90;;;;;;4978157;28;20500;-73
2022/08/15 06:51:18;;;;;;;3.83;2.95;;;19.00;99.90;;;;;;4976214;28;20523;-74
2022/08/15 06:53:55;;;;;;;5.28;3.13;;;19.00;99.90;;;;;;4976091;28;20068;-73
2022/08/15 06:56:38;;;;;;;2.83;2.53;;;19.00;99.90;;;;;;4992119;28;20034;-72
2022/08/15 06:59:38;;;;;;;4.97;3.00;;;19.00;99.90;;;;;;4974907;28;20128;-73
2022/08/15 07:02:19;;;;;;;2.88;2.58;;;19.00;99.90;;;;;;4965549;28;20101;-72
2022/08/15 07:05:07;;;;;;;3.63;3.05;;;19.10;99.90;;;;;;4990734;28;20054;-73
2022/08/15 07:07:55;;;;;;;4.05;3.05;;;19.20;99.90;;;;;;5011155;28;20100;-73
2022/08/15 07:10:35;;;;;;;3.25;2.95;;;19.30;99.90;;;;;;4984900;28;20137;-74
2022/08/15 07:13:16;;;;;;;4.47;3.35;;;19.40;99.90;;;;;;4999914;28;20128;-72
2022/08/15 07:15:53;;;;;;;5.25;2.97;;;19.40;99.90;;;;;;4977105;28;20034;-72
2022/08/15 07:18:36;;;;;;;2.78;2.58;;;19.50;99.90;;;;;;4997052;28;20045;-72
2022/08/15 07:21:22;;;;;;;6.05;3.20;;;19.50;99.90;;;;;;4967038;28;20452;-73
2022/08/15 07:24:23;;;;;;;3.72;2.55;;;19.50;99.90;;;;;;4986181;28;20090;-74
2022/08/15 07:27:09;;;;;;;3.22;2.83;;;19.60;99.90;;;;;;4995702;28;20042;-73
2022/08/15 07:29:54;;;;;;;3.45;2.72;;;19.70;99.90;;;;;;4993442;28;20129;-74
2022/08/15 07:32:44;;;;;;;3.67;3.17;;;19.80;99.90;;;;;;5006120;28;20041;-74
2022/08/15 07:35:21;;;;;;;5.22;3.00;;;19.90;99.90;;;;;;4994243;28;20038;-74
2022/08/15 07:38:01;;;;;;;3.40;2.70;;;19.90;99.90;;;;;;5006645;28;20049;-73
2022/08/15 07:40:36;;;;;;;3.60;2.92;;;20.10;99.90;;;;;;4994328;28;20046;-74
2022/08/15 07:43:25;;;;;;;4.45;2.65;;;20.30;99.90;;;;;;5008153;28;20564;-73
2022/08/15 07:46:10;;;;;;;2.80;2.28;;;20.40;99.90;;;;;;4972064;28;20034;-73
2022/08/15 07:48:43;;;;;;;3.90;3.08;;;20.30;99.90;;;;;;5006217;28;20124;-73
2022/08/15 07:51:17;;;;;;;3.25;2.95;;;20.30;99.90;;;;;;5008412;28;20046;-73
2022/08/15 07:54:05;;;;;;;3.13;2.80;;;20.30;99.90;;;;;;5009936;28;20038;-73
2022/08/15 07:56:52;;;;;;;4.07;3.28;;;20.40;99.90;;;;;;4996342;28;20046;-73
2022/08/15 08:00:21;;;;;;;3.63;3.28;;;20.40;99.90;;;;;;5011999;28;20061;-73
2022/08/15 08:03:02;;;;;;;4.18;2.85;;;20.30;99.90;;;;;;4951131;28;20048;-73
2022/08/15 08:05:47;;;;;;;4.07;2.97;;;20.40;99.90;;;;;;5035578;23;20038;-72
2022/08/15 08:08:22;;;;;;;6.28;3.65;;;20.50;99.90;;;;;;5029562;28;20072;-72
2022/08/15 08:11:05;;;;;;;6.35;4.10;;;20.60;99.90;;;;;;5000804;28;20049;-72
2022/08/15 08:13:48;;;;;;;3.65;3.35;;;20.80;99.90;;;;;;5014337;28;20462;-72
2022/08/15 08:16:56;;;;;;;3.42;3.00;;;20.90;99.90;;;;;;5029532;28;20041;-72
2022/08/15 08:20:03;;;;;;;2.97;2.67;;;21.10;99.90;;;;;;5060369;28;20528;-72
2022/08/15 08:22:49;;;;;;;5.57;3.13;;;21.30;99.90;;;;;;5026213;28;20052;-71
2022/08/15 08:25:25;;;;;;;3.95;2.88;;;21.30;99.90;;;;;;5014296;28;20096;-72
2022/08/15 08:28:09;;;;;;;3.17;2.88;;;21.50;99.90;;;;;;5036560;28;20041;-72
2022/08/15 08:30:57;;;;;;;5.03;3.50;;;21.60;99.90;;;;;;5017990;28;20430;-72
2022/08/15 08:33:48;;;;;;;4.10;3.10;;;21.60;99.90;;;;;;5033508;28;20068;-71
2022/08/15 08:36:37;;;;;;;4.43;3.20;;;21.70;99.90;;;;;;5027976;28;20412;-72
2022/08/15 08:39:28;;;;;;;4.65;3.30;;;21.80;99.90;;;;;;5039965;28;20037;-72
2022/08/15 08:42:30;;;;;;;4.63;3.72;;;21.90;99.90;;;;;;5050532;28;20048;-72
2022/08/15 08:45:10;;;;;;;3.83;2.75;;;22.00;99.90;;;;;;5038496;28;20049;-72
2022/08/15 08:48:20;;;;;;;4.28;2.53;;;22.10;99.90;;;;;;5036752;28;20514;-72
2022/08/15 08:51:23;;;;;;;3.20;2.90;;;22.40;99.90;;;;;;5035584;28;20056;-72
2022/08/15 08:54:05;;;;;;;3.28;2.50;;;22.70;99.90;;;;;;5031278;28;20386;-72
2022/08/15 08:56:44;;;;;;;3.25;2.95;;;22.70;99.90;;;;;;5014939;28;20125;-72
2022/08/15 08:59:25;;;;;;;3.33;2.92;;;22.80;99.90;;;;;;5019282;28;20449;-72
2022/08/15 09:02:02;;;;;;;3.92;2.40;;;22.90;99.90;;;;;;5051999;28;20037;-73
2022/08/15 09:04:46;;;;;;;2.65;1.90;;;23.00;99.90;;;;;;5034313;28;20045;-72
2022/08/15 09:07:30;;;;;;;2.38;2.17;;;23.20;99.90;;;;;;5029384;28;20041;-72
2022/08/15 09:10:06;;;;;;;3.50;2.40;;;23.10;99.90;;;;;;5050415;28;20047;-72
2022/08/15 09:15:40;;;;;;;2.40;2.10;;;23.20;99.90;;;;;;5047708;28;20401;-72
2022/08/15 09:18:19;;;;;;;3.33;2.40;;;23.30;99.90;;;;;;5032663;28;20072;-73
2022/08/15 09:20:51;;;;;;;4.18;2.20;;;23.40;99.90;;;;;;5047217;28;20045;-72
2022/08/15 09:23:24;;;;;;;4.20;2.35;;;23.60;99.90;;;;;;5033939;28;20051;-71
2022/08/15 09:26:01;;;;;;;;;;;23.60;99.90;;;;;;5051170;28;20051;-71
2022/08/15 09:28:39;;;;;;;2.83;2.40;;;23.80;99.90;;;;;;5014466;28;19927;-72
2022/08/15 09:31:16;;;;;;;3.83;2.20;;;23.90;99.90;;;;;;5032150;28;20087;-72
2022/08/15 09:33:57;;;;;;;3.28;2.17;;;24.00;99.90;;;;;;5027079;28;20052;-71
2022/08/15 09:37:08;;;;;;;3.40;2.00;;;24.00;99.90;;;;;;5026624;28;20116;-71
2022/08/15 09:39:47;;;;;;;2.10;1.90;;;24.20;99.00;;;;;;4996358;28;20107;-71
2022/08/15 09:42:28;;;;;;;2.33;2.03;;;24.40;97.40;;;;;;5048964;28;20095;-72
2022/08/15 09:45:37;;;;;;;2.10;1.90;;;24.50;97.00;;;;;;5046505;28;20111;-71
2022/08/15 09:48:27;;;;;;;5.72;1.83;;;24.60;96.60;;;;;;5050449;28;20036;-72
2022/08/15 09:51:21;;;;;;;3.42;2.00;;;24.90;95.50;;;;;;5049657;28;20469;-72
2022/08/15 09:53:56;;;;;;;;;;;24.90;95.00;;;;;;5032900;28;20033;-72
2022/08/15 09:56:31;;;;;;;2.75;1.88;;;25.00;93.90;;;;;;5030450;28;19920;-72
2022/08/15 09:59:18;;;;;;;2.00;1.75;;;25.10;94.50;;;;;;5052023;28;20068;-72
2022/08/15 10:01:52;;;;;;;2.38;1.80;;;25.10;93.80;;;;;;5035029;28;20052;-72
2022/08/15 10:04:49;;;;;;;2.83;1.95;;;24.80;93.20;;;;;;5029583;28;20052;-71
2022/08/15 10:07:29;;;;;;;2.00;1.80;;;24.50;93.40;;;;;;5049615;28;20044;-71
2022/08/15 10:10:01;;;;;;;2.65;1.70;;;24.70;94.20;;;;;;5048731;28;20049;-71
2022/08/15 10:12:37;;;;;;;3.42;2.08;;;25.00;94.30;;;;;;5034817;28;20053;-71
2022/08/15 10:15:43;;;;;;;2.50;2.00;;;25.20;93.50;;;;;;5048305;28;20051;-71
2022/08/15 10:18:51;;;;;;;3.35;2.03;;;25.20;92.80;;;;;;5054650;28;20542;-71
2022/08/15 10:21:32;;;;;;;3.03;2.40;;;25.00;92.90;;;;;;5049625;28;20511;-72
2022/08/15 10:24:23;;;;;;;2.53;2.15;;;25.10;93.40;;;;;;5045269;28;20041;-73
2022/08/15 10:27:22;;;;;;;2.60;2.15;;;25.20;93.30;;;;;;5033367;28;20068;-72
2022/08/15 10:30:15;;;;;;;4.35;2.88;;;25.00;92.90;;;;;;5053359;28;20119;-71
2022/08/15 10:32:49;;;;;;;5.03;2.15;;;25.10;93.50;;;;;;5043110;28;20730;-71
2022/08/15 10:35:31;;;;;;;2.40;2.20;;;25.30;92.10;;;;;;5031061;28;20060;-71
2022/08/15 10:38:07;;;;;;;2.78;2.33;;;25.50;91.90;;;;;;5040516;28;20041;-72
2022/08/15 10:40:57;;;;;;;2.85;2.17;;;25.60;91.80;;;;;;5029601;28;20521;-71
2022/08/15 10:43:44;;;;;;;3.42;2.03;;;25.80;91.30;;;;;;5033682;28;20380;-71
2022/08/15 10:46:26;;;;;;;2.53;2.20;;;25.90;91.40;;;;;;5047688;28;20029;-71
2022/08/15 10:49:02;;;;;;;2.47;2.28;;;26.00;91.20;;;;;;5051491;28;20037;-71
2022/08/15 10:51:43;;;;;;;4.78;2.67;;;26.00;91.10;;;;;;5048093;28;20039;-71
2022/08/15 10:54:24;;;;;;;2.22;2.00;;;26.10;90.90;;;;;;5047179;28;20435;-72
2022/08/15 10:56:55;;;;;;;2.30;2.00;;;26.10;91.00;;;;;;5030582;28;20128;-71
2022/08/15 10:59:36;;;;;;;2.33;2.13;;;26.20;88.60;;;;;;5033610;28;20041;-72
2022/08/15 11:02:29;;;;;;;3.10;2.83;;;26.30;87.70;;;;;;5050185;28;20126;-72
2022/08/15 11:05:05;;;;;;;2.88;2.30;;;26.30;89.30;;;;;;5031818;28;20036;-72
2022/08/15 11:07:47;;;;;;;3.25;2.22;;;26.30;88.50;;;;;;5049416;28;20041;-72
2022/08/15 11:10:23;;;;;;;3.05;2.75;;;26.40;90.10;;;;;;5052109;28;20044;-71
2022/08/15 11:13:06;;;;;;;4.03;2.78;;;26.20;90.30;;;;;;5049620;28;20045;-71
2022/08/15 11:15:45;;;;;;;;;;;26.00;90.00;;;;;;5029940;28;20045;-71
2022/08/15 11:18:42;;;;;;;4.45;2.53;;;26.00;90.50;;;;;;5016446;28;20417;-72
2022/08/15 11:21:39;;;;;;;3.22;2.72;;;26.20;90.10;;;;;;5048353;28;20040;-72
2022/08/15 11:24:11;;;;;;;3.33;3.03;;;26.10;89.60;;;;;;5049108;28;20537;-70
2022/08/15 11:26:45;;;;;;;3.42;2.60;;;26.10;89.00;;;;;;5050448;28;20041;-69
2022/08/15 11:29:24;;;;;;;3.72;3.15;;;26.30;89.40;;;;;;5032827;28;20337;-69
2022/08/15 11:31:58;;;;;;;3.03;2.35;;;26.20;88.30;;;;;;5051346;28;20045;-70
2022/08/15 11:34:39;;;;;;;4.38;2.72;;;26.30;88.40;;;;;;5052654;28;20033;-69
2022/08/15 11:37:12;;;;;;;5.00;2.72;;;26.40;86.90;;;;;;5054308;28;20502;-69
2022/08/15 11:39:58;;;;;;;3.67;2.55;;;26.40;86.90;;;;;;5054776;28;20495;-69
2022/08/15 11:42:36;;;;;;;4.40;2.40;;;26.60;86.50;;;;;;5052551;28;20041;-69
2022/08/15 11:45:19;;;;;;;2.63;2.25;;;26.80;87.30;;;;;;5018873;28;20055;-69
2022/08/15 11:47:53;;;;;;;3.03;2.03;;;27.00;86.00;;;;;;5056803;28;20763;-69
2022/08/15 11:50:33;;;;;;;2.85;2.47;;;27.20;85.10;;;;;;5052366;28;20287;-70
2022/08/15 11:53:10;;;;;;;2.85;2.30;;;27.10;83.00;;;;;;5052855;28;20060;-69
2022/08/15 11:55:45;;;;;;;5.25;2.45;;;27.20;83.50;;;;;;5051028;28;20037;-69
2022/08/15 11:58:21;;;;;;;4.25;2.33;;;27.40;81.70;;;;;;5055402;28;20043;-69
2022/08/15 12:00:57;;;;;;;3.08;2.65;;;27.50;80.60;;;;;;5054165;28;20087;-69
2022/08/15 12:03:34;;;;;;;2.85;2.15;;;27.50;81.40;;;;;;5052765;28;20047;-69
2022/08/15 12:06:12;;;;;;;2.28;2.08;;;27.40;80.90;;;;;;5034684;28;20103;-69
2022/08/15 12:08:46;;;;;;;2.83;2.42;;;27.10;79.70;;;;;;5038590;28;20047;-69
2022/08/15 12:11:23;;;;;;;4.72;3.10;;;27.00;80.50;;;;;;5052666;28;20045;-69
2022/08/15 12:14:13;;;;;;;4.82;2.30;;;27.10;79.80;;;;;;5052776;28;20059;-70
2022/08/15 12:17:05;;;;;;;3.45;2.45;;;27.10;79.10;;;;;;5049612;28;20707;-69
2022/08/15 12:19:37;;;;;;;3.63;2.40;;;27.20;80.90;;;;;;5051773;28;20033;-71
2022/08/15 12:22:27;;;;;;;2.33;2.13;;;27.10;79.40;;;;;;5050130;28;20128;-71
2022/08/15 12:25:00;;;;;;;3.33;2.30;;;26.80;79.30;;;;;;5048354;28;20087;-69
2022/08/15 12:27:35;;;;;;;3.50;2.30;;;26.70;78.80;;;;;;5055000;28;20794;-69
2022/08/15 12:30:09;;;;;;;2.40;2.20;;;26.70;79.50;;;;;;5059054;28;20048;-69
2022/08/15 12:32:36;;;;;;;3.15;2.40;;;26.80;79.30;;;;;;5053303;28;20055;-70
2022/08/15 12:35:10;;;;;;;2.67;2.20;;;27.00;79.30;;;;;;5047436;28;20037;-69
2022/08/15 12:37:43;;;;;;;4.90;2.22;;;27.10;79.20;;;;;;5054029;28;20033;-69
2022/08/15 12:40:14;;;;;;;2.30;2.10;;;27.20;75.40;;;;;;5053474;28;20044;-69
2022/08/15 12:42:46;;;;;;;3.10;2.50;;;27.30;73.80;;;;;;5035358;28;20051;-70
2022/08/15 12:45:18;;;;;;;4.72;2.50;;;27.30;75.30;;;;;;5050548;28;20051;-70
2022/08/15 12:47:50;;;;;;;2.73;2.53;;;27.30;76.40;;;;;;5056386;28;20045;-69
2022/08/15 12:50:17;;;;;;;2.35;2.15;;;27.40;75.00;;;;;;5055918;28;20550;-69
2022/08/15 12:52:49;;;;;;;2.60;2.40;;;27.30;74.30;;;;;;5016797;28;20045;-69
2022/08/15 12:55:21;;;;;;;3.08;2.40;;;27.30;75.40;;;;;;5049089;28;20067;-69
2022/08/15 12:57:53;;;;;;;2.63;2.30;;;27.40;75.60;;;;;;5035728;28;20036;-69
2022/08/15 13:00:26;;;;;;;6.03;2.70;;;27.40;73.30;;;;;;5050201;28;20034;-69
2022/08/15 13:02:58;;;;;;;2.35;2.15;;;27.50;72.80;;;;;;5053409;28;20033;-69
2022/08/15 13:05:33;;;;;;;3.80;2.47;;;27.70;73.50;;;;;;5047638;28;20782;-69
2022/08/15 13:08:05;;;;;;;2.85;2.55;;;28.00;72.80;;;;;;5056707;28;20075;-69
2022/08/15 13:10:37;;;;;;;3.53;3.03;;;28.20;72.20;;;;;;5052078;28;20439;-70
2022/08/15 13:13:11;;;;;;;4.22;2.50;;;28.30;69.20;;;;;;5052106;28;20068;-69
2022/08/15 13:15:44;;;;;;;3.00;2.35;;;28.30;67.90;;;;;;5050383;28;20456;-69
2022/08/15 13:18:20;;;;;;;2.60;2.30;;;28.30;67.20;;;;;;5052785;28;20056;-70
2022/08/15 13:23:42;;;;;;;3.05;2.25;;;28.70;69.40;;;;;;5052498;28;20522;-69
2022/08/15 13:26:16;;;;;;;3.03;2.50;;;28.90;65.80;;;;;;5049284;28;20045;-70
2022/08/15 13:28:50;;;;;;;3.55;2.78;;;28.80;63.80;;;;;;5054061;28;20048;-69
2022/08/15 13:31:21;;;;;;;5.88;2.90;;;28.50;65.40;;;;;;5052055;28;20495;-69
2022/08/15 13:33:53;;;;;;;3.55;2.70;;;28.50;66.10;;;;;;5052288;28;20044;-69
2022/08/15 13:36:27;;;;;;;2.75;2.47;;;28.60;65.50;;;;;;5051852;28;20044;-69
2022/08/15 13:39:06;;;;;;;3.88;2.65;;;28.80;65.70;;;;;;5038129;28;20037;-69
2022/08/15 13:41:38;;;;;;;4.60;2.53;;;29.00;65.10;;;;;;5052273;28;20116;-70
2022/08/15 13:44:10;;;;;;;4.18;2.40;;;29.10;63.50;;;;;;5052136;28;20494;-70
2022/08/15 13:46:42;;;;;;;2.28;2.08;;;29.10;64.00;;;;;;5048641;28;20040;-70
2022/08/15 13:49:16;;;;;;;5.28;2.15;;;29.00;59.20;;;;;;5051363;28;20044;-70
2022/08/15 13:51:51;;;;;;;2.30;2.10;;;28.80;56.70;;;;;;5033644;28;20051;-70
2022/08/15 13:54:23;;;;;;;2.47;2.00;;;29.00;58.40;;;;;;5049027;28;20055;-70
2022/08/15 13:56:55;;;;;;;2.47;2.27;;;29.20;57.80;;;;;;5033864;28;20509;-71
2022/08/15 13:59:29;;;;;;;2.92;2.33;;;29.30;58.10;;;;;;5053032;28;20044;-69